KPOB/POB METAR and TAF weather

Enter ICAO airport designator
Station Type Date Time Source
KPOB METAR 2021/05/10 01:56 UTC NOAA

KPOB 100156Z AUTO 22010KT 10SM BKN170 OVC200 24/11 A2994 RMK AO2 SLP140 T02380105 $


Station Type Date Time Source
KPOB Decoded METAR 2021/05/10 01:56 UTC NOAA

Pope Air Force Base, NC, United States (KPOB) 35-10N 079-02W 61M
May 09, 2021 - 09:56 PM EDT / 2021.05.10 0156 UTC
Wind: from the SW (220 degrees) at 12 MPH (10 KT):0
Visibility: 10 mile(s):0
Sky conditions: overcast
Temperature: 74.8 F (23.8 C)
Dew Point: 50.9 F (10.5 C)
Relative Humidity: 43%
Pressure (altimeter): 29.94 in. Hg (1013 hPa)
ob: KPOB 100156Z AUTO 22010KT 10SM BKN170 OVC200 24/11 A2994 RMK AO2 SLP140 T02380105
cycle: 2

Station Type Date Time Source
KPOB TAF 2021/05/10 01:15 UTC NOAA

TAF KPOB 100105Z 1001/1107 23015G20KT 9999 FEW040 SCT150 BKN250 QNH2990INS
BECMG 1007/1008 21010G15KT 9000 -SHRA BKN005 BKN015 OVC040 540102 QNH2987INS
BECMG 1014/1015 22015G25KT 8000 -SHRA VCTS SCT015 BKN035CB OVC080 QNH2985INS
TEMPO 1018/1023 4800 -TSRA SCT005 BKN015 BKN035CB OVC080
BECMG 1103/1104 02008KT 6000 -RA BKN003 OVC008 QNH2993INS TX26/1020Z TN08/1010Z

Example: see airport list